createdAt,value
2023-05-14T00:00:54.921Z,8.95
2023-05-14T00:03:21.712Z,12.68
2023-05-14T00:05:48.527Z,7.80
2023-05-14T00:08:17.951Z,9.57
2023-05-14T00:10:44.714Z,7.75
2023-05-14T00:13:11.293Z,7.65
2023-05-14T00:15:38.005Z,8.48
2023-05-14T00:18:04.788Z,8.55
2023-05-14T00:20:31.383Z,9.13
2023-05-14T00:22:57.966Z,8.43
2023-05-14T00:25:24.557Z,9.95
2023-05-14T00:27:51.196Z,9.15
2023-05-14T00:30:17.867Z,9.85
2023-05-14T00:32:44.510Z,8.07
2023-05-14T00:35:11.207Z,8.52
2023-05-14T00:37:37.894Z,8.65
2023-05-14T00:40:06.872Z,7.45
2023-05-14T00:42:34.230Z,8.57
2023-05-14T00:45:00.833Z,8.90
2023-05-14T00:47:27.576Z,9.02
2023-05-14T00:49:54.294Z,9.45
2023-05-14T00:52:21.412Z,8.48
2023-05-14T00:54:48.141Z,10.40
2023-05-14T00:57:14.695Z,11.05
2023-05-14T00:59:42.583Z,8.98
2023-05-14T01:02:09.432Z,9.85
2023-05-14T01:04:36.239Z,8.88
2023-05-14T01:07:05.921Z,10.45
2023-05-14T01:09:46.268Z,9.20
2023-05-14T01:12:34.321Z,7.40
2023-05-14T01:15:11.022Z,10.20
2023-05-14T01:17:43.576Z,8.40
2023-05-14T01:20:10.772Z,8.35
2023-05-14T01:22:37.822Z,8.00
2023-05-14T01:25:05.936Z,8.85
2023-05-14T01:27:57.629Z,7.82
2023-05-14T01:33:10.459Z,7.63
2023-05-14T01:35:37.327Z,7.95
2023-05-14T01:38:07.079Z,7.15
2023-05-14T01:40:34.040Z,8.15
2023-05-14T01:43:00.805Z,9.38
2023-05-14T01:45:27.782Z,9.10
2023-05-14T01:47:54.709Z,7.72
2023-05-14T01:50:21.881Z,7.82
2023-05-14T01:52:48.690Z,11.73
2023-05-14T01:55:18.434Z,12.40
2023-05-14T01:57:45.060Z,9.77
2023-05-14T02:00:12.063Z,7.85
2023-05-14T02:02:41.236Z,7.95
2023-05-14T02:05:10.731Z,9.32
2023-05-14T02:07:37.539Z,9.90
2023-05-14T02:10:04.317Z,8.60
2023-05-14T02:12:32.213Z,9.90
2023-05-14T02:14:58.759Z,7.90
2023-05-14T02:17:26.272Z,9.82
2023-05-14T02:19:52.991Z,10.10
2023-05-14T02:22:19.588Z,9.35
2023-05-14T02:24:46.218Z,10.55
2023-05-14T02:27:13.289Z,8.85
2023-05-14T02:29:39.896Z,10.40
2023-05-14T02:32:06.870Z,9.48
2023-05-14T02:34:34.505Z,9.70
2023-05-14T02:37:01.213Z,8.25
2023-05-14T02:39:27.883Z,10.10
2023-05-14T02:41:54.720Z,8.38
2023-05-14T02:44:21.472Z,9.38
2023-05-14T02:46:48.084Z,9.02
2023-05-14T02:49:14.710Z,8.93
2023-05-14T02:51:41.346Z,11.20
2023-05-14T02:54:08.206Z,9.15
2023-05-14T02:56:35.011Z,9.80
2023-05-14T02:59:01.841Z,9.75
2023-05-14T03:01:29.080Z,7.97
2023-05-14T03:03:56.158Z,8.05
2023-05-14T03:06:22.750Z,7.82
2023-05-14T03:08:49.342Z,8.70
2023-05-14T03:11:15.970Z,8.20
2023-05-14T03:13:42.599Z,7.80
2023-05-14T03:16:09.310Z,7.55
2023-05-14T03:18:37.106Z,7.75
2023-05-14T03:21:03.970Z,8.50
2023-05-14T03:23:31.989Z,7.32
2023-05-14T03:25:58.818Z,7.90
2023-05-14T03:28:26.013Z,8.07
2023-05-14T03:30:52.859Z,9.25
2023-05-14T03:33:19.690Z,13.55
2023-05-14T03:35:46.253Z,8.32
2023-05-14T03:38:12.829Z,7.40
2023-05-14T03:40:39.398Z,11.07
2023-05-14T03:43:06.089Z,9.00
2023-05-14T03:45:33.433Z,8.85
2023-05-14T03:48:00.129Z,10.73
2023-05-14T03:50:26.912Z,8.32
2023-05-14T03:52:56.167Z,7.80
2023-05-14T03:55:22.947Z,9.55
2023-05-14T03:57:49.615Z,8.98
2023-05-14T04:00:16.589Z,8.40
2023-05-14T04:02:48.069Z,9.00
2023-05-14T04:05:15.785Z,8.95
2023-05-14T04:07:42.408Z,8.40
2023-05-14T04:10:09.386Z,9.00
2023-05-14T04:12:36.149Z,8.98
2023-05-14T04:15:03.787Z,8.55
2023-05-14T04:17:30.651Z,9.32
2023-05-14T04:19:57.258Z,9.98
2023-05-14T04:22:24.208Z,9.15
2023-05-14T04:24:51.671Z,9.57
2023-05-14T04:27:21.606Z,9.73
2023-05-14T04:29:49.130Z,10.02
2023-05-14T04:32:15.770Z,9.68
2023-05-14T04:34:42.398Z,9.02
2023-05-14T04:37:08.992Z,10.25
2023-05-14T04:39:35.725Z,9.93
2023-05-14T04:42:02.296Z,7.63
2023-05-14T04:44:28.858Z,7.60
2023-05-14T04:46:55.806Z,8.70
2023-05-14T04:49:22.361Z,8.70
2023-05-14T04:51:49.421Z,9.80
2023-05-14T04:54:16.059Z,8.80
2023-05-14T04:56:42.670Z,8.85
2023-05-14T04:59:09.283Z,9.55
2023-05-14T05:01:38.659Z,12.50
2023-05-14T05:04:05.364Z,9.75
2023-05-14T05:06:32.342Z,11.68
2023-05-14T05:09:00.599Z,10.15
2023-05-14T05:11:28.593Z,8.88
2023-05-14T05:13:55.275Z,9.13
2023-05-14T05:16:21.900Z,9.80
2023-05-14T05:18:48.559Z,9.15
2023-05-14T05:21:15.170Z,8.95
2023-05-14T05:23:41.764Z,9.88
2023-05-14T05:26:08.530Z,12.55
2023-05-14T05:28:47.803Z,10.23
2023-05-14T05:31:14.704Z,11.05
2023-05-14T05:33:41.366Z,12.48
2023-05-14T05:36:08.607Z,12.68
2023-05-14T05:38:35.348Z,11.48
2023-05-14T05:41:01.917Z,10.82
2023-05-14T05:43:28.622Z,9.57
2023-05-14T05:45:57.287Z,10.38
2023-05-14T05:48:23.896Z,9.95
2023-05-14T05:51:01.314Z,9.85
2023-05-14T05:53:28.065Z,10.48
2023-05-14T05:55:54.733Z,11.07
2023-05-14T05:58:21.664Z,11.27
2023-05-14T06:00:48.644Z,12.07
2023-05-14T06:03:15.392Z,12.70
2023-05-14T06:05:42.162Z,11.48
2023-05-14T06:08:08.776Z,12.48
2023-05-14T06:10:36.236Z,13.00
2023-05-14T06:13:02.923Z,12.88
2023-05-14T06:15:29.508Z,13.95
2023-05-14T06:17:56.170Z,13.73
2023-05-14T06:20:22.937Z,13.25
2023-05-14T06:22:49.675Z,13.13
2023-05-14T06:25:16.244Z,13.07
2023-05-14T06:27:42.920Z,13.05
2023-05-14T06:30:11.172Z,13.38
2023-05-14T06:32:37.888Z,13.63
2023-05-14T06:35:04.879Z,13.55
2023-05-14T06:37:31.452Z,13.43
2023-05-14T06:39:58.305Z,12.80
2023-05-14T06:42:24.927Z,13.27
2023-05-14T06:44:51.498Z,13.07
2023-05-14T06:47:18.144Z,13.45
2023-05-14T06:49:44.740Z,13.55
2023-05-14T06:52:11.315Z,12.55
2023-05-14T06:54:37.864Z,12.13
2023-05-14T06:57:04.705Z,11.18
2023-05-14T06:59:31.370Z,13.65
2023-05-14T07:01:58.060Z,12.32
2023-05-14T07:04:24.708Z,12.35
2023-05-14T07:06:51.471Z,11.55
2023-05-14T07:09:18.132Z,10.95
2023-05-14T07:11:44.702Z,9.90
2023-05-14T07:14:11.317Z,10.50
2023-05-14T07:16:37.898Z,10.43
2023-05-14T07:19:04.523Z,10.80
2023-05-14T07:21:31.700Z,10.43
2023-05-14T07:24:01.218Z,11.65
2023-05-14T07:26:27.770Z,9.68
2023-05-14T07:28:54.484Z,9.82
2023-05-14T07:31:21.150Z,10.60
2023-05-14T07:33:47.778Z,10.40
2023-05-14T07:36:14.327Z,8.50
2023-05-14T07:38:40.928Z,8.88
2023-05-14T07:41:07.847Z,12.57
2023-05-14T07:43:34.573Z,8.52
2023-05-14T07:46:01.134Z,9.13
2023-05-14T07:48:27.763Z,9.07
2023-05-14T07:50:57.440Z,10.45
2023-05-14T07:53:24.929Z,12.35
2023-05-14T07:55:52.020Z,11.60
2023-05-14T07:58:18.703Z,11.68
2023-05-14T08:00:45.320Z,12.98
2023-05-14T08:03:11.964Z,11.40
2023-05-14T08:05:38.660Z,12.40
2023-05-14T08:08:05.232Z,13.38
2023-05-14T08:10:31.839Z,13.27
2023-05-14T08:12:58.410Z,14.00
2023-05-14T08:15:27.540Z,14.82
2023-05-14T08:17:54.668Z,11.75
2023-05-14T08:20:21.457Z,11.98
2023-05-14T08:22:51.022Z,12.82
2023-05-14T08:25:17.661Z,13.35
2023-05-14T08:27:44.316Z,12.13
2023-05-14T08:30:11.447Z,13.60
2023-05-14T08:32:38.659Z,12.90
2023-05-14T08:35:05.842Z,13.95
2023-05-14T08:37:32.453Z,13.50
2023-05-14T08:39:59.212Z,14.65
2023-05-14T08:42:26.977Z,13.75
2023-05-14T08:44:58.359Z,14.38
2023-05-14T08:47:25.379Z,15.30
2023-05-14T08:50:05.023Z,14.55
2023-05-14T08:52:34.334Z,13.80
2023-05-14T08:55:04.219Z,14.95
2023-05-14T08:57:32.472Z,14.10
2023-05-14T08:59:59.091Z,16.63
2023-05-14T09:02:28.918Z,16.13
2023-05-14T09:05:00.028Z,15.65
2023-05-14T09:07:27.077Z,13.30
2023-05-14T09:09:56.218Z,13.52
2023-05-14T09:12:23.180Z,14.25
2023-05-14T09:14:50.686Z,12.75
2023-05-14T09:17:18.367Z,13.25
2023-05-14T09:19:49.366Z,15.23
2023-05-14T09:22:19.414Z,12.43
2023-05-14T09:24:46.077Z,13.77
2023-05-14T09:27:20.543Z,13.00
2023-05-14T09:29:51.225Z,13.18
2023-05-14T09:32:17.858Z,12.55
2023-05-14T09:34:44.445Z,12.95
2023-05-14T09:37:11.022Z,12.48
2023-05-14T09:39:38.467Z,13.73
2023-05-14T09:42:05.666Z,11.68
2023-05-14T09:44:32.278Z,12.80
2023-05-14T09:46:58.985Z,11.63
2023-05-14T09:49:25.854Z,12.77
2023-05-14T09:51:52.489Z,11.23
2023-05-14T09:54:19.352Z,11.77
2023-05-14T09:56:46.170Z,11.90
2023-05-14T09:59:12.852Z,11.07
2023-05-14T10:01:42.297Z,10.65
2023-05-14T10:04:09.953Z,11.40
2023-05-14T10:06:38.375Z,10.75
2023-05-14T10:09:07.419Z,11.55
2023-05-14T10:11:38.045Z,11.40
2023-05-14T10:14:09.082Z,10.13
2023-05-14T10:16:38.266Z,9.80
2023-05-14T10:19:10.269Z,10.13
2023-05-14T10:21:38.487Z,10.07
2023-05-14T10:24:06.358Z,10.30
2023-05-14T10:26:39.038Z,10.80
2023-05-14T10:29:09.813Z,10.68
2023-05-14T10:31:56.044Z,10.73
2023-05-14T10:34:35.125Z,10.50
2023-05-14T10:37:02.773Z,12.23
2023-05-14T10:39:54.487Z,9.43
2023-05-14T10:42:25.773Z,10.60
2023-05-14T10:47:21.454Z,9.60
2023-05-14T10:49:52.949Z,9.95
2023-05-14T10:52:19.804Z,11.98
2023-05-14T10:54:53.360Z,10.25
2023-05-14T10:57:21.140Z,11.68
2023-05-14T10:59:49.295Z,10.73
2023-05-14T11:02:29.986Z,11.23
2023-05-14T11:05:03.692Z,10.70
2023-05-14T11:07:34.711Z,11.48
2023-05-14T11:10:03.471Z,10.77
2023-05-14T11:12:32.466Z,13.18
2023-05-14T11:15:00.840Z,11.45
2023-05-14T11:17:28.489Z,10.65
2023-05-14T11:19:58.977Z,12.85
2023-05-14T11:22:25.699Z,10.50
2023-05-14T11:24:52.505Z,9.45
2023-05-14T11:27:19.811Z,9.18
2023-05-14T11:29:47.439Z,10.57
2023-05-14T11:32:15.017Z,9.90
2023-05-14T11:34:42.910Z,14.15
2023-05-14T11:37:10.204Z,11.60
2023-05-14T11:39:39.602Z,10.95
2023-05-14T11:42:14.674Z,10.60
2023-05-14T11:44:44.317Z,11.68
2023-05-14T11:47:11.443Z,10.45
2023-05-14T11:49:38.311Z,9.00
2023-05-14T11:52:06.421Z,8.48
2023-05-14T11:54:34.395Z,8.52
2023-05-14T11:57:03.221Z,8.18
2023-05-14T11:59:31.887Z,6.55
2023-05-14T12:01:58.977Z,7.18
2023-05-14T12:04:25.751Z,9.10
2023-05-14T12:06:53.073Z,6.15
2023-05-14T12:09:22.946Z,8.02
2023-05-14T12:11:51.531Z,6.05
2023-05-14T12:14:22.754Z,6.38
2023-05-14T12:19:17.855Z,10.93
2023-05-14T12:21:46.568Z,6.03
2023-05-14T12:24:17.930Z,5.65
2023-05-14T12:29:13.474Z,5.65
2023-05-14T12:31:46.838Z,6.43
2023-05-14T12:34:13.453Z,6.15
2023-05-14T12:36:40.083Z,6.50
2023-05-14T12:39:06.852Z,6.22
2023-05-14T12:41:33.716Z,6.50
2023-05-14T12:44:02.095Z,6.38
2023-05-14T12:46:28.950Z,6.07
2023-05-14T12:48:55.971Z,6.55
2023-05-14T12:51:22.643Z,6.00
2023-05-14T12:53:49.672Z,5.70
2023-05-14T12:56:16.250Z,6.97
2023-05-14T12:58:43.186Z,5.60
2023-05-14T13:01:11.939Z,6.57
2023-05-14T13:03:38.636Z,6.20
2023-05-14T13:06:05.643Z,6.78
2023-05-14T13:08:49.999Z,8.02
2023-05-14T13:11:19.562Z,7.43
2023-05-14T13:13:46.131Z,7.72
2023-05-14T13:16:16.770Z,6.05
2023-05-14T13:18:43.533Z,6.28
2023-05-14T13:21:10.145Z,7.20
2023-05-14T13:23:36.888Z,6.43
2023-05-14T13:26:03.447Z,6.50
2023-05-14T13:28:36.164Z,7.32
2023-05-14T13:31:07.455Z,6.78
2023-05-14T13:33:40.713Z,7.18
2023-05-14T13:36:08.164Z,5.57
2023-05-14T13:38:35.038Z,7.63
2023-05-14T13:41:05.421Z,7.10
2023-05-14T13:43:33.045Z,5.82
2023-05-14T13:46:00.946Z,5.18
2023-05-14T13:48:30.340Z,7.22
2023-05-14T13:50:57.191Z,6.43
2023-05-14T13:53:24.980Z,6.10
2023-05-14T13:55:56.399Z,8.27
2023-05-14T13:58:24.305Z,8.70
2023-05-14T14:00:51.585Z,9.82
2023-05-14T14:03:18.533Z,13.32
2023-05-14T14:05:45.315Z,10.27
2023-05-14T14:08:22.491Z,7.07
2023-05-14T14:10:49.732Z,12.32
2023-05-14T14:13:16.369Z,13.50
2023-05-14T14:15:43.711Z,7.93
2023-05-14T14:18:10.516Z,8.77
2023-05-14T14:20:39.330Z,6.82
2023-05-14T14:23:05.977Z,8.02
2023-05-14T14:25:32.536Z,6.35
2023-05-14T14:27:59.148Z,5.88
2023-05-14T14:30:25.783Z,6.35
2023-05-14T14:32:52.497Z,6.45
2023-05-14T14:35:19.857Z,6.05
2023-05-14T14:37:50.524Z,7.35
2023-05-14T14:40:17.388Z,6.05
2023-05-14T14:42:44.301Z,7.80
2023-05-14T14:45:11.519Z,7.38
2023-05-14T14:47:38.308Z,7.20
2023-05-14T14:50:06.166Z,8.25
2023-05-14T14:52:33.020Z,7.13
2023-05-14T14:54:59.637Z,8.85
2023-05-14T14:57:26.829Z,7.85
2023-05-14T14:59:53.474Z,10.73
2023-05-14T15:02:20.282Z,6.93
2023-05-14T15:04:47.008Z,8.48
2023-05-14T15:07:15.918Z,7.47
2023-05-14T15:09:42.663Z,7.90
2023-05-14T15:12:10.696Z,5.53
2023-05-14T15:14:37.255Z,6.72
2023-05-14T15:17:04.423Z,7.45
2023-05-14T15:19:32.252Z,6.55
2023-05-14T15:21:58.801Z,9.73
2023-05-14T15:24:26.329Z,8.63
2023-05-14T15:26:53.635Z,11.88
2023-05-14T15:29:20.499Z,7.85
2023-05-14T15:31:47.249Z,7.93
2023-05-14T15:34:13.903Z,5.45
2023-05-14T15:36:41.655Z,7.28
2023-05-14T15:39:10.224Z,8.65
2023-05-14T15:41:36.970Z,7.28
2023-05-14T15:44:03.631Z,5.40
2023-05-14T15:46:33.083Z,6.75
2023-05-14T15:48:59.650Z,5.78
2023-05-14T15:51:26.260Z,6.15
2023-05-14T15:53:54.108Z,6.57
2023-05-14T15:56:22.261Z,8.88
2023-05-14T15:58:49.337Z,11.00
2023-05-14T16:01:15.926Z,6.53
2023-05-14T16:03:42.727Z,7.88
2023-05-14T16:06:09.692Z,8.55
2023-05-14T16:08:36.276Z,6.38
2023-05-14T16:11:02.847Z,7.75
2023-05-14T16:13:29.423Z,6.95
2023-05-14T16:15:56.001Z,6.78
2023-05-14T16:18:23.810Z,7.88
2023-05-14T16:20:50.362Z,6.43
2023-05-14T16:23:16.964Z,7.78
2023-05-14T16:25:43.751Z,9.13
2023-05-14T16:28:10.340Z,6.22
2023-05-14T16:30:37.261Z,6.70
2023-05-14T16:33:03.928Z,7.00
2023-05-14T16:35:30.575Z,6.53
2023-05-14T16:37:57.181Z,6.60
2023-05-14T16:40:24.100Z,6.50
2023-05-14T16:42:51.316Z,7.15
2023-05-14T16:45:18.015Z,8.75
2023-05-14T16:47:44.627Z,6.50
2023-05-14T16:50:11.308Z,5.72
2023-05-14T16:52:37.868Z,5.93
2023-05-14T16:55:04.818Z,6.35
2023-05-14T16:57:31.597Z,6.28
2023-05-14T16:59:58.190Z,8.73
2023-05-14T17:02:25.544Z,7.05
2023-05-14T17:04:54.119Z,7.35
2023-05-14T17:07:20.721Z,7.75
2023-05-14T17:09:47.327Z,8.80
2023-05-14T17:12:13.909Z,6.63
2023-05-14T17:14:40.495Z,6.47
2023-05-14T17:17:07.056Z,21.20
2023-05-14T17:19:33.657Z,12.13
2023-05-14T17:22:00.510Z,6.90
2023-05-14T17:24:27.089Z,7.18
2023-05-14T17:26:53.728Z,6.80
2023-05-14T17:29:20.315Z,6.72
2023-05-14T17:31:48.277Z,6.65
2023-05-14T17:34:17.033Z,7.60
2023-05-14T17:36:43.716Z,7.15
2023-05-14T17:39:10.516Z,7.97
2023-05-14T17:41:37.130Z,6.80
2023-05-14T17:44:07.813Z,6.93
2023-05-14T17:46:35.549Z,6.90
2023-05-14T17:49:02.233Z,6.68
2023-05-14T17:51:28.853Z,6.10
2023-05-14T17:53:56.237Z,6.20
2023-05-14T17:56:22.937Z,5.90
2023-05-14T17:58:49.674Z,6.45
2023-05-14T18:01:16.287Z,6.10
2023-05-14T18:03:45.004Z,6.40
2023-05-14T18:06:11.730Z,5.72
2023-05-14T18:08:38.285Z,7.05
2023-05-14T18:11:04.895Z,6.13
2023-05-14T18:13:31.458Z,7.93
2023-05-14T18:15:58.082Z,6.25
2023-05-14T18:18:24.668Z,7.75
2023-05-14T18:20:51.881Z,6.75
2023-05-14T18:23:18.803Z,6.22
2023-05-14T18:25:45.411Z,6.07
2023-05-14T18:28:12.011Z,6.38
2023-05-14T18:30:38.624Z,7.65
2023-05-14T18:33:05.492Z,5.50
2023-05-14T18:35:32.161Z,6.35
2023-05-14T18:37:58.789Z,6.70
2023-05-14T18:40:25.371Z,6.28
2023-05-14T18:42:51.970Z,6.75
2023-05-14T18:45:18.560Z,8.38
2023-05-14T18:47:45.239Z,8.10
2023-05-14T18:50:13.762Z,6.97
2023-05-14T18:52:43.077Z,9.27
2023-05-14T18:55:12.377Z,7.15
2023-05-14T18:57:38.971Z,6.80
2023-05-14T19:00:06.346Z,11.38
2023-05-14T19:02:32.993Z,8.75
2023-05-14T19:04:59.650Z,6.50
2023-05-14T19:07:27.587Z,6.38
2023-05-14T19:09:54.226Z,6.40
2023-05-14T19:12:20.809Z,7.93
2023-05-14T19:14:47.405Z,7.00
2023-05-14T19:17:13.993Z,7.05
2023-05-14T19:19:40.709Z,7.78
2023-05-14T19:22:07.365Z,6.50
2023-05-14T19:24:34.014Z,6.50
2023-05-14T19:27:00.841Z,6.72
2023-05-14T19:29:27.440Z,8.88
2023-05-14T19:31:54.120Z,10.23
2023-05-14T19:34:20.791Z,6.38
2023-05-14T19:36:47.478Z,8.57
2023-05-14T19:39:14.101Z,8.30
2023-05-14T19:41:40.708Z,8.40
2023-05-14T19:44:07.393Z,7.43
2023-05-14T19:46:34.119Z,8.73
2023-05-14T19:49:01.195Z,8.02
2023-05-14T19:51:27.856Z,13.13
2023-05-14T19:53:54.515Z,9.43
2023-05-14T19:56:21.631Z,7.22
2023-05-14T19:58:48.351Z,8.63
2023-05-14T20:01:15.077Z,6.68
2023-05-14T20:03:43.921Z,7.70
2023-05-14T20:06:10.945Z,8.00
2023-05-14T20:08:37.502Z,8.50
2023-05-14T20:11:04.069Z,6.20
2023-05-14T20:13:35.448Z,7.68
2023-05-14T20:18:28.546Z,12.85
2023-05-14T20:20:55.808Z,6.82
2023-05-14T20:23:22.396Z,9.07
2023-05-14T20:25:48.974Z,8.80
2023-05-14T20:28:15.559Z,10.05
2023-05-14T20:30:42.448Z,7.25
2023-05-14T20:33:09.221Z,6.95
2023-05-14T20:35:36.015Z,6.78
2023-05-14T20:38:03.689Z,6.55
2023-05-14T20:40:30.811Z,8.80
2023-05-14T20:42:57.434Z,6.47
2023-05-14T20:45:27.074Z,7.90
2023-05-14T20:47:54.019Z,9.85
2023-05-14T20:50:21.488Z,10.88
2023-05-14T20:52:48.147Z,6.65
2023-05-14T20:55:14.957Z,11.07
2023-05-14T20:57:42.299Z,7.95
2023-05-14T21:00:10.923Z,6.45
2023-05-14T21:02:37.934Z,7.45
2023-05-14T21:05:04.954Z,5.95
2023-05-14T21:07:31.754Z,7.47
2023-05-14T21:09:58.528Z,6.70
2023-05-14T21:12:25.176Z,5.65
2023-05-14T21:14:51.724Z,8.27
2023-05-14T21:17:18.494Z,6.43
2023-05-14T21:19:45.063Z,7.85
2023-05-14T21:22:12.451Z,5.85
2023-05-14T21:24:39.025Z,5.95
2023-05-14T21:27:05.996Z,7.45
2023-05-14T21:29:32.570Z,8.65
2023-05-14T21:31:59.287Z,7.85
2023-05-14T21:34:25.945Z,7.90
2023-05-14T21:36:52.520Z,8.82
2023-05-14T21:39:19.934Z,8.48
2023-05-14T21:41:46.511Z,7.13
2023-05-14T21:44:13.068Z,6.15
2023-05-14T21:46:39.765Z,7.72
2023-05-14T21:49:06.412Z,7.82
2023-05-14T21:51:33.106Z,6.93
2023-05-14T21:53:59.711Z,6.03
2023-05-14T21:56:26.329Z,6.15
2023-05-14T21:58:55.441Z,17.08
2023-05-14T22:01:22.220Z,6.40
2023-05-14T22:03:49.051Z,10.48
2023-05-14T22:06:15.723Z,7.75
2023-05-14T22:08:42.537Z,9.23
2023-05-14T22:11:09.096Z,7.35
2023-05-14T22:13:40.665Z,6.85
2023-05-14T22:18:41.174Z,7.75
2023-05-14T22:21:07.925Z,7.97
2023-05-14T22:23:37.524Z,8.40
2023-05-14T22:26:04.516Z,6.75
2023-05-14T22:28:31.129Z,8.32
2023-05-14T22:30:59.699Z,7.22
2023-05-14T22:33:26.402Z,9.82
2023-05-14T22:35:53.037Z,10.13
2023-05-14T22:38:20.321Z,9.50
2023-05-14T22:40:47.160Z,7.97
2023-05-14T22:43:13.781Z,7.47
2023-05-14T22:45:40.373Z,10.00
2023-05-14T22:48:07.090Z,6.15
2023-05-14T22:50:33.739Z,5.47
2023-05-14T22:53:00.430Z,6.35
2023-05-14T22:55:27.387Z,7.47
2023-05-14T22:57:54.345Z,5.35
2023-05-14T23:00:21.303Z,6.45
2023-05-14T23:02:48.419Z,8.98
2023-05-14T23:05:15.076Z,6.15
2023-05-14T23:07:41.662Z,6.65
2023-05-14T23:10:08.623Z,6.85
2023-05-14T23:12:35.228Z,5.63
2023-05-14T23:15:01.837Z,10.63
2023-05-14T23:17:28.674Z,7.90
2023-05-14T23:19:55.458Z,7.22
2023-05-14T23:22:22.076Z,7.28
2023-05-14T23:24:48.671Z,7.53
2023-05-14T23:27:15.271Z,7.47
2023-05-14T23:29:41.885Z,5.97
2023-05-14T23:32:08.628Z,5.80
2023-05-14T23:34:35.379Z,6.00
2023-05-14T23:37:02.407Z,7.25
2023-05-14T23:39:29.008Z,7.32
2023-05-14T23:41:55.613Z,6.80
2023-05-14T23:44:22.180Z,6.20
2023-05-14T23:46:48.789Z,7.28
2023-05-14T23:49:15.433Z,6.43
2023-05-14T23:51:42.092Z,8.05
2023-05-14T23:54:08.702Z,7.68
2023-05-14T23:56:35.702Z,6.00
2023-05-14T23:59:05.350Z,7.38
